Time;durP1;ratioP1;P1;durP2;ratioP2;P2;SDS_P1;SDS_P2;PMS_P1;PMS_P2;Temp;Humidity;BMP_temperature;BMP_pressure;BME280_temperature;BME280_humidity;BME280_pressure;Samples;Min_cycle;Max_cycle;Signal;HPM_P1;HPM_P2
2023/04/04 04:00:27;;;;;;;0.30;0.30;;;0.00;99.90;;;;;;5796474;23;20287;-71
2023/04/04 04:02:54;;;;;;;0.35;0.35;;;0.00;99.90;;;;;;4893251;29;20207;-71
2023/04/04 04:05:21;;;;;;;0.50;0.50;;;0.00;99.90;;;;;;4901950;29;20211;-70
2023/04/04 04:07:48;;;;;;;0.30;0.30;;;0.00;99.90;;;;;;4901733;29;20259;-71
2023/04/04 04:10:14;;;;;;;0.25;0.25;;;0.00;99.90;;;;;;4902541;29;21480;-71
2023/04/04 04:12:41;;;;;;;2.60;1.10;;;0.00;99.90;;;;;;4895001;29;20238;-71
2023/04/04 04:17:40;;;;;;;0.28;0.28;;;0.00;99.90;;;;;;4876685;29;20220;-71
2023/04/04 04:20:08;;;;;;;0.65;0.65;;;0.00;99.90;;;;;;4878080;29;20739;-71
2023/04/04 04:22:35;;;;;;;0.68;0.68;;;0.00;99.90;;;;;;4878427;29;20226;-71
2023/04/04 04:25:02;;;;;;;0.30;0.30;;;0.00;99.90;;;;;;4878198;29;20302;-71
2023/04/04 04:27:29;;;;;;;0.80;0.80;;;-0.10;99.90;;;;;;4879057;29;20215;-71
2023/04/04 04:29:56;;;;;;;0.20;0.20;;;-0.10;99.90;;;;;;4861966;29;20243;-71
2023/04/04 04:32:25;;;;;;;0.50;0.50;;;-0.10;99.90;;;;;;4878705;29;20367;-70
2023/04/04 04:34:53;;;;;;;0.38;0.35;;;-0.10;99.90;;;;;;4877944;29;20578;-70
2023/04/04 04:37:20;;;;;;;0.70;0.70;;;-0.10;99.90;;;;;;4875224;29;20228;-70
2023/04/04 04:39:47;;;;;;;0.65;0.65;;;-0.10;99.90;;;;;;4872635;29;20267;-71
2023/04/04 04:42:13;;;;;;;0.45;0.45;;;-0.10;99.90;;;;;;4878096;29;20227;-70
2023/04/04 04:44:40;;;;;;;0.20;0.20;;;-0.10;99.90;;;;;;4877969;29;20649;-71
2023/04/04 04:47:07;;;;;;;0.50;0.50;;;-0.10;99.90;;;;;;4877755;29;20239;-71
2023/04/04 04:49:33;;;;;;;1.20;1.20;;;-0.10;99.90;;;;;;4879958;29;20216;-71
2023/04/04 04:52:02;;;;;;;1.55;0.98;;;-0.20;99.90;;;;;;4877707;29;20248;-70
2023/04/04 04:54:28;;;;;;;1.17;0.82;;;-0.20;99.90;;;;;;4878107;29;20208;-71
2023/04/04 04:56:55;;;;;;;0.45;0.45;;;-0.10;99.90;;;;;;4876852;29;20231;-70
2023/04/04 04:59:22;;;;;;;0.35;0.35;;;-0.20;99.90;;;;;;4872937;29;20638;-70
2023/04/04 05:01:49;;;;;;;0.47;0.47;;;-0.20;99.90;;;;;;4876013;29;20219;-70
2023/04/04 05:04:16;;;;;;;1.30;1.30;;;-0.20;99.90;;;;;;4877868;29;20230;-70
2023/04/04 05:06:43;;;;;;;0.32;0.32;;;-0.10;99.90;;;;;;4877241;29;20685;-72
2023/04/04 05:09:11;;;;;;;0.82;0.82;;;-0.10;99.90;;;;;;4878471;29;20203;-71
2023/04/04 05:11:38;;;;;;;0.55;0.55;;;-0.10;99.90;;;;;;4881699;29;20218;-70
2023/04/04 05:14:05;;;;;;;0.35;0.35;;;0.00;99.90;;;;;;4881620;29;20231;-71
2023/04/04 05:16:33;;;;;;;7.88;0.75;;;0.00;99.90;;;;;;4882800;29;20243;-71
2023/04/04 05:18:59;;;;;;;2.35;0.95;;;0.00;99.90;;;;;;4886262;29;20291;-70
2023/04/04 05:21:26;;;;;;;1.35;1.25;;;0.10;99.90;;;;;;4881808;29;20208;-70
2023/04/04 05:23:53;;;;;;;1.30;0.85;;;0.10;99.90;;;;;;4879815;29;20228;-70
2023/04/04 05:26:21;;;;;;;1.70;0.47;;;0.10;99.90;;;;;;4881815;29;20318;-69
2023/04/04 05:28:49;;;;;;;1.85;1.50;;;0.10;99.90;;;;;;4881196;29;20565;-69
2023/04/04 05:31:16;;;;;;;1.52;1.52;;;0.20;99.90;;;;;;4882290;29;20211;-70
2023/04/04 05:33:42;;;;;;;0.30;0.30;;;0.30;99.90;;;;;;4878233;29;20231;-69
2023/04/04 05:36:10;;;;;;;1.65;1.65;;;0.50;99.90;;;;;;4880281;29;20251;-71
2023/04/04 05:38:38;;;;;;;0.85;0.85;;;0.70;99.90;;;;;;4881222;29;20602;-71
2023/04/04 05:41:04;;;;;;;3.85;3.55;;;0.80;99.90;;;;;;4875125;29;20216;-71
2023/04/04 05:43:32;;;;;;;0.63;0.63;;;1.00;99.90;;;;;;4879230;29;20207;-70
2023/04/04 05:45:59;;;;;;;1.40;1.20;;;1.10;99.90;;;;;;4876910;29;20227;-71
2023/04/04 05:48:26;;;;;;;0.90;0.90;;;1.00;99.90;;;;;;4879273;29;20215;-70
2023/04/04 05:50:53;;;;;;;2.30;2.17;;;0.90;99.90;;;;;;4878034;29;20217;-70
2023/04/04 05:53:19;;;;;;;1.80;1.80;;;0.90;99.90;;;;;;4872466;29;20231;-69
2023/04/04 05:55:46;;;;;;;0.60;0.60;;;0.90;99.90;;;;;;4879546;29;20254;-69
2023/04/04 05:58:13;;;;;;;1.45;1.38;;;0.80;99.90;;;;;;4877499;29;20316;-69
2023/04/04 06:00:41;;;;;;;0.73;0.55;;;0.80;99.90;;;;;;4877934;29;20243;-69
2023/04/04 06:03:08;;;;;;;0.57;0.57;;;0.80;99.90;;;;;;4882035;29;20223;-68
2023/04/04 06:05:35;;;;;;;0.82;0.82;;;0.70;99.90;;;;;;4878849;29;20232;-69
2023/04/04 06:08:02;;;;;;;4.20;2.45;;;0.70;99.90;;;;;;4885904;29;20208;-70
2023/04/04 06:10:28;;;;;;;0.77;0.77;;;0.70;99.90;;;;;;4878254;29;20266;-69
2023/04/04 06:12:55;;;;;;;2.47;2.38;;;0.70;99.90;;;;;;4878030;29;20240;-71
2023/04/04 06:15:22;;;;;;;0.47;0.47;;;0.70;99.90;;;;;;4879227;29;20228;-70
2023/04/04 06:17:50;;;;;;;0.80;0.30;;;0.70;99.90;;;;;;4876964;29;20212;-70
2023/04/04 06:20:18;;;;;;;0.40;0.40;;;0.70;99.90;;;;;;4880078;29;20300;-69
2023/04/04 06:22:44;;;;;;;0.73;0.73;;;0.70;99.90;;;;;;4879854;29;20204;-69
2023/04/04 06:25:13;;;;;;;0.40;0.40;;;0.70;99.90;;;;;;4877771;29;20223;-70
2023/04/04 06:27:40;;;;;;;0.40;0.40;;;0.80;99.90;;;;;;4877950;29;20669;-70
2023/04/04 06:30:08;;;;;;;0.20;0.20;;;0.80;99.90;;;;;;4875433;29;20669;-71
2023/04/04 06:32:35;;;;;;;0.45;0.45;;;0.90;99.90;;;;;;4879520;29;20300;-70
2023/04/04 06:35:03;;;;;;;1.30;1.13;;;0.90;99.90;;;;;;4875252;29;20220;-69
2023/04/04 06:37:30;;;;;;;1.15;1.15;;;0.90;99.90;;;;;;4877719;29;20212;-71
2023/04/04 06:39:57;;;;;;;0.35;0.35;;;1.00;99.90;;;;;;4871380;29;20213;-70
2023/04/04 06:42:23;;;;;;;0.68;0.68;;;1.00;99.90;;;;;;4879628;29;20208;-70
2023/04/04 06:44:50;;;;;;;1.50;0.77;;;1.10;99.90;;;;;;4874018;29;20239;-71
2023/04/04 06:47:17;;;;;;;0.30;0.30;;;1.20;99.90;;;;;;4871751;29;20243;-70
2023/04/04 06:49:43;;;;;;;0.93;0.88;;;1.30;99.90;;;;;;4872751;29;20220;-71
2023/04/04 06:52:12;;;;;;;0.35;0.35;;;1.30;99.90;;;;;;4879798;29;20204;-73
2023/04/04 06:54:39;;;;;;;1.58;1.55;;;1.40;99.90;;;;;;4876964;29;20308;-69
2023/04/04 06:57:06;;;;;;;1.27;0.80;;;1.40;99.90;;;;;;4878876;29;20662;-70
2023/04/04 06:59:32;;;;;;;0.95;0.95;;;1.50;99.90;;;;;;4875491;29;20212;-70
2023/04/04 07:01:59;;;;;;;0.55;0.35;;;1.60;99.90;;;;;;4875063;29;20207;-69
2023/04/04 07:04:27;;;;;;;0.85;0.85;;;1.60;99.90;;;;;;4876936;29;20300;-70
2023/04/04 07:06:54;;;;;;;0.50;0.50;;;1.70;99.90;;;;;;4871742;29;20236;-71
2023/04/04 07:09:22;;;;;;;0.45;0.45;;;1.80;99.90;;;;;;4875654;29;20620;-71
2023/04/04 07:11:48;;;;;;;0.85;0.85;;;1.90;99.90;;;;;;4877460;29;20779;-71
2023/04/04 07:14:15;;;;;;;0.30;0.30;;;1.90;99.90;;;;;;4877524;29;20238;-71
2023/04/04 07:16:42;;;;;;;1.10;1.10;;;2.00;99.90;;;;;;4880277;29;20236;-71
2023/04/04 07:19:09;;;;;;;6.53;1.85;;;2.10;99.90;;;;;;4878495;29;20212;-70
2023/04/04 07:21:35;;;;;;;0.77;0.77;;;2.10;99.90;;;;;;4879979;29;20211;-69
2023/04/04 07:24:02;;;;;;;0.57;0.57;;;2.20;99.90;;;;;;4878585;29;20212;-70
2023/04/04 07:26:30;;;;;;;1.05;1.05;;;2.30;99.90;;;;;;4878903;29;20236;-71
2023/04/04 07:28:57;;;;;;;0.68;0.47;;;2.30;99.90;;;;;;4878754;29;20689;-70
2023/04/04 07:31:24;;;;;;;0.93;0.93;;;2.50;99.90;;;;;;4879090;29;20212;-70
2023/04/04 07:33:52;;;;;;;0.93;0.88;;;2.60;99.90;;;;;;4879810;29;20719;-70
2023/04/04 07:36:19;;;;;;;0.25;0.25;;;2.70;99.90;;;;;;4877553;29;20224;-70
2023/04/04 07:38:46;;;;;;;0.93;0.88;;;2.70;99.90;;;;;;4880145;29;20689;-70
2023/04/04 07:41:13;;;;;;;0.20;0.20;;;2.70;99.90;;;;;;4871267;29;20216;-69
2023/04/04 07:43:41;;;;;;;0.35;0.35;;;2.70;99.90;;;;;;4879786;29;20276;-70
2023/04/04 07:46:08;;;;;;;0.30;0.30;;;2.80;99.90;;;;;;4877138;29;20737;-69
2023/04/04 07:48:34;;;;;;;0.17;0.17;;;2.80;99.90;;;;;;4880769;29;20211;-70
2023/04/04 07:51:03;;;;;;;0.68;0.68;;;2.90;99.90;;;;;;4886775;29;20647;-70
2023/04/04 07:53:29;;;;;;;0.50;0.50;;;2.90;99.90;;;;;;4881636;29;20295;-69
2023/04/04 07:55:56;;;;;;;0.50;0.50;;;3.00;99.90;;;;;;4882120;29;20228;-68
2023/04/04 07:58:23;;;;;;;0.35;0.20;;;3.10;99.90;;;;;;4881969;29;20704;-71
2023/04/04 08:00:51;;;;;;;0.20;0.20;;;3.10;99.90;;;;;;4880226;29;20319;-69
2023/04/04 08:03:18;;;;;;;2.60;0.63;;;3.20;99.90;;;;;;4880259;29;20563;-69
2023/04/04 08:05:45;;;;;;;0.90;0.90;;;3.20;99.90;;;;;;4880104;29;20756;-70
2023/04/04 08:08:12;;;;;;;0.40;0.40;;;3.30;99.90;;;;;;4878650;29;20212;-70
2023/04/04 08:10:39;;;;;;;0.85;0.85;;;3.40;99.90;;;;;;4880314;29;20208;-70
2023/04/04 08:13:06;;;;;;;0.50;0.50;;;3.50;99.90;;;;;;4880458;29;20218;-69
2023/04/04 08:15:32;;;;;;;0.20;0.20;;;3.60;99.90;;;;;;4885075;29;20253;-69
2023/04/04 08:18:01;;;;;;;1.30;1.23;;;3.60;99.90;;;;;;4882096;29;20211;-70
2023/04/04 08:20:28;;;;;;;0.40;0.40;;;3.70;99.90;;;;;;4876472;29;20212;-70
2023/04/04 08:22:55;;;;;;;0.30;0.30;;;3.70;99.90;;;;;;4877794;29;20241;-69
2023/04/04 08:25:21;;;;;;;0.50;0.50;;;3.70;99.90;;;;;;4877342;29;20231;-68
2023/04/04 08:27:48;;;;;;;1.15;1.15;;;3.80;99.90;;;;;;4880598;29;20528;-70
2023/04/04 08:30:15;;;;;;;0.52;0.52;;;3.90;99.90;;;;;;4880711;29;20212;-71
2023/04/04 08:32:43;;;;;;;0.73;0.73;;;3.90;99.90;;;;;;4877883;29;20207;-69
2023/04/04 08:35:11;;;;;;;2.25;0.40;;;4.00;99.90;;;;;;4875912;29;20235;-69
2023/04/04 08:37:38;;;;;;;0.50;0.50;;;4.00;99.90;;;;;;4870711;29;20220;-69
2023/04/04 08:40:07;;;;;;;0.63;0.63;;;4.10;99.90;;;;;;4873249;29;20263;-69
2023/04/04 08:42:35;;;;;;;0.20;0.20;;;4.20;99.90;;;;;;4872999;29;20212;-69
2023/04/04 08:45:04;;;;;;;0.47;0.47;;;4.30;99.90;;;;;;4873647;29;20216;-69
2023/04/04 08:47:32;;;;;;;0.30;0.30;;;4.40;99.90;;;;;;4874529;29;20247;-70
2023/04/04 08:50:01;;;;;;;0.52;0.52;;;4.50;99.90;;;;;;4876955;29;20208;-70
2023/04/04 08:52:30;;;;;;;0.73;0.73;;;4.60;99.90;;;;;;4874861;29;20211;-70
2023/04/04 08:54:58;;;;;;;0.50;0.50;;;4.90;99.90;;;;;;4880313;29;20611;-71
2023/04/04 08:57:24;;;;;;;0.93;0.43;;;5.10;99.90;;;;;;4890462;29;20604;-71
2023/04/04 08:59:51;;;;;;;0.93;0.93;;;5.40;99.90;;;;;;4877470;29;20204;-69
2023/04/04 09:02:24;;;;;;;0.65;0.65;;;5.70;99.90;;;;;;4874739;29;20212;-70
2023/04/04 09:04:53;;;;;;;2.85;1.08;;;5.80;99.90;;;;;;4876418;29;20244;-69
2023/04/04 09:07:20;;;;;;;0.47;0.47;;;5.80;99.90;;;;;;4875698;29;20230;-72
2023/04/04 09:09:50;;;;;;;0.95;0.63;;;5.90;99.90;;;;;;4877551;29;20232;-71
2023/04/04 09:12:19;;;;;;;0.30;0.30;;;6.00;99.90;;;;;;4874436;29;20212;-70
2023/04/04 09:14:47;;;;;;;0.68;0.38;;;5.80;99.90;;;;;;4874390;29;20549;-71
2023/04/04 09:17:14;;;;;;;1.10;0.40;;;5.80;99.90;;;;;;4876227;29;20242;-70
2023/04/04 09:19:40;;;;;;;0.30;0.30;;;5.90;99.90;;;;;;4876619;29;20211;-69
2023/04/04 09:22:08;;;;;;;0.30;0.30;;;5.90;99.90;;;;;;4875607;29;20219;-70
2023/04/04 09:24:43;;;;;;;0.68;0.68;;;5.90;99.90;;;;;;4872061;29;20212;-70
2023/04/04 09:27:12;;;;;;;1.35;0.95;;;5.90;99.90;;;;;;4877019;29;20243;-69
2023/04/04 09:29:39;;;;;;;0.40;0.40;;;6.00;99.90;;;;;;4875910;29;20212;-69
2023/04/04 09:32:09;;;;;;;0.98;0.60;;;6.00;99.90;;;;;;4874504;29;21137;-70
2023/04/04 09:34:36;;;;;;;0.30;0.30;;;5.90;99.90;;;;;;4875902;29;20232;-69
2023/04/04 09:37:04;;;;;;;6.85;0.93;;;5.70;99.90;;;;;;4881882;29;20227;-69
2023/04/04 09:39:31;;;;;;;0.30;0.30;;;5.80;99.90;;;;;;4873569;29;20212;-70
2023/04/04 09:41:59;;;;;;;0.25;0.25;;;5.90;99.90;;;;;;4871849;29;20212;-70
2023/04/04 09:44:32;;;;;;;0.63;0.63;;;5.80;99.90;;;;;;4876574;29;20291;-70
2023/04/04 09:47:22;;;;;;;1.63;1.55;;;5.80;99.90;;;;;;4873494;29;20227;-70
2023/04/04 09:49:49;;;;;;;0.40;0.35;;;6.00;99.90;;;;;;4876890;29;20265;-70
2023/04/04 09:52:19;;;;;;;1.38;1.38;;;6.10;99.90;;;;;;4874627;29;20336;-69
2023/04/04 09:54:54;;;;;;;2.28;0.30;;;6.20;99.90;;;;;;4876347;29;20220;-69
2023/04/04 09:57:21;;;;;;;0.20;0.20;;;6.20;99.90;;;;;;4886429;29;20261;-69
2023/04/04 09:59:50;;;;;;;1.20;0.63;;;6.20;99.90;;;;;;4898981;29;20216;-68
2023/04/04 10:02:17;;;;;;;0.50;0.50;;;6.30;99.90;;;;;;4894995;29;20234;-69
2023/04/04 10:04:44;;;;;;;4.15;0.35;;;6.40;99.90;;;;;;4879596;29;20196;-69
2023/04/04 10:07:13;;;;;;;0.40;0.40;;;6.40;99.90;;;;;;4879617;29;20651;-69
2023/04/04 10:09:40;;;;;;;0.80;0.80;;;6.40;99.90;;;;;;4880238;29;20223;-68
2023/04/04 10:12:11;;;;;;;0.20;0.20;;;6.30;99.90;;;;;;4878936;29;20634;-69
2023/04/04 10:14:37;;;;;;;1.15;0.30;;;6.30;99.90;;;;;;4878598;29;20223;-68
2023/04/04 10:17:10;;;;;;;0.82;0.82;;;6.40;99.90;;;;;;4917025;23;20231;-70
2023/04/04 10:19:37;;;;;;;0.68;0.68;;;6.40;99.90;;;;;;4922789;29;20317;-71
2023/04/04 10:22:04;;;;;;;5.60;1.33;;;6.40;99.50;;;;;;4925351;29;20639;-71
2023/04/04 10:24:31;;;;;;;0.17;0.17;;;6.40;98.00;;;;;;4930700;29;20210;-71
2023/04/04 10:26:58;;;;;;;0.20;0.20;;;6.40;97.90;;;;;;4925129;29;20245;-69
2023/04/04 10:29:25;;;;;;;0.30;0.20;;;6.50;97.60;;;;;;4935289;29;20202;-70
2023/04/04 10:31:57;;;;;;;5.57;0.30;;;6.60;95.50;;;;;;4920659;29;20233;-69
2023/04/04 10:34:32;;;;;;;0.30;0.30;;;6.60;95.50;;;;;;4897878;29;20708;-67
2023/04/04 10:37:07;;;;;;;0.20;0.20;;;6.70;95.30;;;;;;4897661;29;20712;-70
2023/04/04 10:39:38;;;;;;;0.17;0.17;;;6.90;95.90;;;;;;4898545;29;20214;-69
2023/04/04 10:42:06;;;;;;;0.63;0.63;;;7.10;96.40;;;;;;4924953;29;20207;-69
2023/04/04 10:44:33;;;;;;;0.30;0.30;;;7.10;96.70;;;;;;4934823;29;20201;-69
2023/04/04 10:47:08;;;;;;;0.30;0.30;;;7.20;96.80;;;;;;4934998;29;20322;-70
2023/04/04 10:49:38;;;;;;;0.20;0.20;;;7.20;96.40;;;;;;4934127;29;20225;-70
2023/04/04 10:52:06;;;;;;;0.65;0.50;;;7.20;96.30;;;;;;4924895;29;20207;-70
2023/04/04 10:54:33;;;;;;;0.30;0.30;;;7.30;96.00;;;;;;4934903;29;20230;-70
2023/04/04 10:57:01;;;;;;;0.82;0.43;;;7.40;95.90;;;;;;4935285;29;20226;-70
2023/04/04 10:59:27;;;;;;;0.30;0.30;;;7.50;94.30;;;;;;4935558;29;20325;-69
2023/04/04 11:01:58;;;;;;;0.20;0.20;;;7.40;91.50;;;;;;4922248;29;20206;-70
2023/04/04 11:04:33;;;;;;;0.10;0.10;;;7.40;89.80;;;;;;4897204;29;20695;-70
2023/04/04 11:07:16;;;;;;;0.73;0.73;;;7.30;90.00;;;;;;4895939;29;20230;-70
2023/04/04 11:09:47;;;;;;;0.25;0.25;;;7.30;90.50;;;;;;4898380;29;20215;-70
2023/04/04 11:12:18;;;;;;;0.20;0.20;;;7.40;88.70;;;;;;4926041;29;20218;-70
2023/04/04 11:14:55;;;;;;;0.20;0.20;;;7.30;87.40;;;;;;4934823;29;20222;-70
2023/04/04 11:17:50;;;;;;;0.20;0.20;;;7.30;86.40;;;;;;4928136;29;20270;-70
2023/04/04 11:20:20;;;;;;;0.32;0.32;;;7.30;90.50;;;;;;4924488;29;20224;-70
2023/04/04 11:22:50;;;;;;;0.20;0.20;;;7.30;90.50;;;;;;4920447;29;20250;-70
2023/04/04 11:25:30;;;;;;;0.20;0.20;;;7.20;90.10;;;;;;4915505;29;20207;-71
2023/04/04 11:27:57;;;;;;;0.20;0.20;;;7.10;90.60;;;;;;4915248;29;20234;-70
2023/04/04 11:30:25;;;;;;;0.68;0.47;;;7.10;91.20;;;;;;4923674;29;20207;-70
2023/04/04 11:32:52;;;;;;;0.75;0.35;;;7.20;91.10;;;;;;4915610;29;20246;-69
2023/04/04 11:35:18;;;;;;;1.52;1.42;;;7.20;91.80;;;;;;4914686;29;20231;-70
2023/04/04 11:38:00;;;;;;;0.30;0.30;;;7.30;92.00;;;;;;4914113;29;20637;-70
2023/04/04 11:40:38;;;;;;;0.25;0.25;;;7.30;90.80;;;;;;4907494;29;20217;-70
2023/04/04 11:43:10;;;;;;;0.20;0.20;;;7.50;90.40;;;;;;4934246;29;20233;-69
2023/04/04 11:45:37;;;;;;;0.65;0.63;;;7.60;91.10;;;;;;4934004;29;20217;-70
2023/04/04 11:48:05;;;;;;;0.40;0.40;;;7.70;91.60;;;;;;4924605;29;20239;-70
2023/04/04 11:50:35;;;;;;;0.20;0.20;;;7.80;91.90;;;;;;4922825;29;20643;-70
2023/04/04 11:53:08;;;;;;;0.85;0.85;;;8.00;91.70;;;;;;4915248;29;20671;-70
2023/04/04 11:55:40;;;;;;;0.45;0.45;;;8.00;91.00;;;;;;4914985;29;20329;-70
2023/04/04 11:58:11;;;;;;;1.05;1.05;;;8.00;91.00;;;;;;4914564;29;20245;-70
2023/04/04 12:00:40;;;;;;;0.30;0.30;;;8.10;91.00;;;;;;4918275;29;20249;-70
2023/04/04 12:03:09;;;;;;;0.40;0.40;;;8.00;90.80;;;;;;4924650;29;20241;-70
2023/04/04 12:05:37;;;;;;;4.93;2.13;;;8.10;91.50;;;;;;4914589;29;20210;-71
2023/04/04 12:08:04;;;;;;;1.75;0.73;;;8.20;91.00;;;;;;4914899;29;20321;-71
2023/04/04 12:10:35;;;;;;;11.40;0.80;;;8.30;90.70;;;;;;4923080;29;20543;-71
2023/04/04 12:13:06;;;;;;;0.52;0.52;;;8.30;88.00;;;;;;4915564;29;20294;-70
2023/04/04 12:15:34;;;;;;;0.30;0.30;;;8.30;85.60;;;;;;4914533;29;20692;-70
2023/04/04 12:18:01;;;;;;;0.40;0.40;;;8.20;84.20;;;;;;4914286;29;20238;-70
2023/04/04 12:20:29;;;;;;;0.30;0.30;;;8.00;84.00;;;;;;4925543;29;20213;-71
2023/04/04 12:22:56;;;;;;;0.30;0.30;;;7.90;84.70;;;;;;4934083;29;20224;-70
2023/04/04 12:25:24;;;;;;;0.85;0.85;;;7.80;84.50;;;;;;4933322;29;20292;-70
2023/04/04 12:27:54;;;;;;;0.20;0.20;;;7.80;85.80;;;;;;4927243;29;20588;-70
2023/04/04 12:30:21;;;;;;;0.20;0.20;;;7.80;86.00;;;;;;4914871;29;20300;-72
2023/04/04 12:32:49;;;;;;;0.30;0.30;;;7.80;86.00;;;;;;4914478;29;20218;-71
2023/04/04 12:35:17;;;;;;;1.42;1.33;;;7.90;84.50;;;;;;4913672;29;20234;-71
2023/04/04 12:38:09;;;;;;;1.40;0.20;;;7.90;86.10;;;;;;4914124;29;20234;-69
2023/04/04 12:40:38;;;;;;;0.30;0.30;;;7.90;83.50;;;;;;4908999;29;20406;-69
2023/04/04 12:43:07;;;;;;;0.20;0.20;;;7.80;84.00;;;;;;4933427;29;20288;-69
2023/04/04 12:45:38;;;;;;;0.45;0.45;;;7.80;84.00;;;;;;4932794;29;20261;-70
2023/04/04 12:48:11;;;;;;;0.20;0.20;;;7.90;84.00;;;;;;4925442;29;20672;-69
2023/04/04 12:50:53;;;;;;;0.52;0.52;;;8.00;84.10;;;;;;4921058;29;20898;-69
2023/04/04 12:53:21;;;;;;;0.30;0.30;;;7.90;83.50;;;;;;4913996;29;20298;-70
2023/04/04 12:55:49;;;;;;;0.20;0.20;;;7.90;85.50;;;;;;4914740;29;20309;-70
2023/04/04 12:58:18;;;;;;;1.90;1.80;;;7.90;85.60;;;;;;4913066;29;20229;-70
2023/04/04 13:00:45;;;;;;;1.25;0.47;;;8.00;85.40;;;;;;4922604;29;20293;-70
2023/04/04 13:03:14;;;;;;;0.32;0.32;;;8.10;86.50;;;;;;4914140;29;20297;-70
2023/04/04 13:05:42;;;;;;;0.30;0.30;;;8.10;84.90;;;;;;4914214;29;20218;-70
2023/04/04 13:08:10;;;;;;;0.88;0.88;;;8.00;81.60;;;;;;4915573;29;20730;-70
2023/04/04 13:10:56;;;;;;;0.93;0.20;;;7.90;83.60;;;;;;4925930;29;20568;-70
2023/04/04 13:13:33;;;;;;;2.72;0.30;;;7.90;83.60;;;;;;4933056;29;20205;-70
2023/04/04 13:16:00;;;;;;;0.50;0.50;;;7.90;83.30;;;;;;4933280;29;20592;-70
2023/04/04 13:18:33;;;;;;;4.75;1.30;;;8.00;84.80;;;;;;4923689;29;20681;-69
2023/04/04 13:21:00;;;;;;;1.13;0.60;;;8.00;84.90;;;;;;4922008;29;20303;-70
2023/04/04 13:23:26;;;;;;;0.20;0.20;;;8.00;84.90;;;;;;4913867;29;20214;-70
2023/04/04 13:25:53;;;;;;;0.50;0.50;;;8.00;84.10;;;;;;4914415;29;20214;-70
2023/04/04 13:28:20;;;;;;;0.17;0.17;;;8.10;85.00;;;;;;4916841;29;20263;-70
2023/04/04 13:30:48;;;;;;;0.80;0.80;;;8.20;83.50;;;;;;4926916;29;20269;-70
2023/04/04 13:33:15;;;;;;;0.22;0.22;;;8.30;82.60;;;;;;4927434;29;20219;-70
2023/04/04 13:35:43;;;;;;;0.20;0.20;;;8.30;83.60;;;;;;4926686;29;20317;-69
2023/04/04 13:38:11;;;;;;;0.30;0.30;;;8.40;82.80;;;;;;4935327;29;20226;-70
2023/04/04 13:40:38;;;;;;;0.65;0.65;;;8.30;81.20;;;;;;4918056;29;20265;-70
2023/04/04 13:43:05;;;;;;;0.20;0.20;;;8.20;82.40;;;;;;4916068;29;20210;-70
2023/04/04 13:45:33;;;;;;;0.20;0.20;;;8.20;84.10;;;;;;4924703;29;20638;-70
2023/04/04 13:48:01;;;;;;;0.38;0.38;;;8.20;84.90;;;;;;4917673;29;20231;-70
2023/04/04 13:50:28;;;;;;;0.60;0.20;;;8.20;84.20;;;;;;4917373;29;20211;-70
2023/04/04 13:52:55;;;;;;;0.95;0.40;;;8.20;82.90;;;;;;4916704;29;20207;-70
2023/04/04 13:55:22;;;;;;;0.95;0.40;;;8.20;84.10;;;;;;4924511;29;20218;-70
2023/04/04 13:57:48;;;;;;;0.20;0.20;;;8.30;84.20;;;;;;4917563;29;20234;-70
2023/04/04 14:00:16;;;;;;;0.30;0.30;;;8.40;83.00;;;;;;4916865;29;20210;-70
2023/04/04 14:02:43;;;;;;;0.30;0.30;;;8.30;80.80;;;;;;4924855;29;20572;-70
2023/04/04 14:05:11;;;;;;;0.25;0.25;;;8.40;83.10;;;;;;4916872;29;20342;-70
2023/04/04 14:07:38;;;;;;;0.25;0.25;;;8.50;81.40;;;;;;4922817;29;20238;-70
2023/04/04 14:10:06;;;;;;;0.40;0.30;;;8.50;82.30;;;;;;4917198;29;20242;-70
2023/04/04 14:12:33;;;;;;;0.20;0.20;;;8.40;81.80;;;;;;4916325;29;20215;-70
2023/04/04 14:15:00;;;;;;;1.95;0.32;;;8.40;79.20;;;;;;4924227;29;20202;-70
2023/04/04 14:17:27;;;;;;;0.20;0.20;;;8.30;79.70;;;;;;4916592;29;20235;-70
2023/04/04 14:19:53;;;;;;;0.47;0.47;;;8.30;78.80;;;;;;4916076;29;20840;-70
2023/04/04 14:22:21;;;;;;;0.20;0.20;;;8.20;78.10;;;;;;4927609;29;20213;-70
2023/04/04 14:24:48;;;;;;;0.20;0.20;;;8.10;79.20;;;;;;4935560;29;20206;-70
2023/04/04 14:27:15;;;;;;;0.85;0.32;;;8.10;80.30;;;;;;4935595;29;20230;-70
2023/04/04 14:29:42;;;;;;;0.10;0.10;;;8.20;80.40;;;;;;4936225;29;20237;-70
2023/04/04 14:32:10;;;;;;;0.20;0.20;;;8.20;81.30;;;;;;4923729;29;20222;-70
2023/04/04 14:34:37;;;;;;;0.32;0.32;;;8.20;82.50;;;;;;4916421;29;20214;-70
2023/04/04 14:37:04;;;;;;;0.73;0.73;;;8.30;84.80;;;;;;4916330;29;20265;-70
2023/04/04 14:39:33;;;;;;;0.30;0.28;;;8.40;83.20;;;;;;4913658;29;20538;-70
2023/04/04 14:41:59;;;;;;;0.20;0.20;;;8.40;83.50;;;;;;4921438;29;20269;-70
2023/04/04 14:44:26;;;;;;;0.30;0.30;;;8.50;82.80;;;;;;4916326;29;20778;-70
2023/04/04 14:46:53;;;;;;;0.82;0.82;;;8.40;82.00;;;;;;4916021;29;20230;-70
2023/04/04 14:49:19;;;;;;;0.30;0.30;;;8.50;83.30;;;;;;4916743;29;20305;-71
2023/04/04 14:51:46;;;;;;;1.23;1.05;;;8.50;84.40;;;;;;4923086;29;20213;-72
2023/04/04 14:54:13;;;;;;;0.63;0.50;;;8.40;83.90;;;;;;4934011;29;20210;-71
2023/04/04 14:56:43;;;;;;;0.20;0.20;;;8.30;86.10;;;;;;4935228;29;20341;-70
2023/04/04 14:59:10;;;;;;;0.60;0.60;;;8.30;85.50;;;;;;4935546;29;20220;-70
2023/04/04 15:01:37;;;;;;;0.50;0.50;;;8.10;83.30;;;;;;4920713;29;20206;-70
2023/04/04 15:04:05;;;;;;;0.52;0.52;;;8.00;83.90;;;;;;4923304;29;20215;-70
2023/04/04 15:06:35;;;;;;;6.45;0.95;;;8.00;85.80;;;;;;4915872;29;20223;-70
2023/04/04 15:09:02;;;;;;;0.32;0.32;;;8.00;85.40;;;;;;4916382;29;20318;-71
2023/04/04 15:11:29;;;;;;;0.20;0.20;;;8.00;85.90;;;;;;4918534;29;20586;-70
2023/04/04 15:13:57;;;;;;;0.35;0.35;;;8.00;86.20;;;;;;4926517;29;20205;-70
2023/04/04 15:16:24;;;;;;;0.75;0.30;;;8.00;86.40;;;;;;4934973;29;20252;-70
2023/04/04 15:18:51;;;;;;;3.50;0.55;;;8.10;86.60;;;;;;4934727;29;20218;-70
2023/04/04 15:21:17;;;;;;;0.50;0.50;;;8.10;86.00;;;;;;4923182;29;20225;-70
2023/04/04 15:23:44;;;;;;;0.65;0.65;;;8.20;86.70;;;;;;4923196;29;20203;-70
2023/04/04 15:26:11;;;;;;;1.30;0.50;;;8.30;86.60;;;;;;4916749;29;20645;-71
2023/04/04 15:28:39;;;;;;;0.68;0.65;;;8.30;87.30;;;;;;4916149;29;20243;-71
2023/04/04 15:31:08;;;;;;;0.30;0.30;;;8.30;87.50;;;;;;4917234;29;20739;-71
2023/04/04 15:33:34;;;;;;;1.80;0.68;;;8.30;86.60;;;;;;4926321;29;20217;-71
2023/04/04 15:36:01;;;;;;;0.70;0.70;;;8.30;87.50;;;;;;4934301;29;20237;-71
2023/04/04 15:38:28;;;;;;;0.85;0.50;;;8.30;87.00;;;;;;4935132;29;20209;-71
2023/04/04 15:40:56;;;;;;;1.20;1.10;;;8.40;87.70;;;;;;4919417;29;20683;-70
2023/04/04 15:43:23;;;;;;;0.30;0.30;;;8.40;87.30;;;;;;4922596;29;20206;-71
2023/04/04 15:45:50;;;;;;;0.85;0.40;;;8.50;87.70;;;;;;4915383;29;20211;-71
2023/04/04 15:48:18;;;;;;;0.93;0.85;;;8.50;87.00;;;;;;4915193;29;20210;-71
2023/04/04 15:50:45;;;;;;;0.90;0.60;;;8.50;88.80;;;;;;4914884;29;20225;-71
2023/04/04 15:53:11;;;;;;;0.20;0.20;;;8.50;88.00;;;;;;4924941;29;20211;-71
2023/04/04 15:55:38;;;;;;;0.95;0.40;;;8.40;88.80;;;;;;4934237;29;20225;-70
2023/04/04 15:58:05;;;;;;;0.70;0.70;;;8.40;88.20;;;;;;4925790;29;20226;-71
2023/04/04 16:00:32;;;;;;;0.60;0.60;;;8.40;88.00;;;;;;4919923;29;20210;-70
2023/04/04 16:02:59;;;;;;;0.35;0.35;;;8.30;88.00;;;;;;4933792;29;20236;-71
2023/04/04 16:05:27;;;;;;;2.25;0.63;;;8.20;89.50;;;;;;4934243;29;20206;-71
2023/04/04 16:07:54;;;;;;;1.30;0.70;;;8.20;89.70;;;;;;4929274;29;20226;-71
2023/04/04 16:10:20;;;;;;;0.50;0.50;;;8.20;90.20;;;;;;4922566;29;20222;-71
2023/04/04 16:12:48;;;;;;;1.95;0.95;;;8.10;89.50;;;;;;4921612;29;20237;-71
2023/04/04 16:15:14;;;;;;;0.38;0.38;;;8.10;89.20;;;;;;4933598;29;20205;-71
2023/04/04 16:17:41;;;;;;;1.20;1.10;;;8.00;90.40;;;;;;4939116;23;20227;-68
2023/04/04 16:20:09;;;;;;;1.48;1.48;;;8.00;90.20;;;;;;4895858;29;20211;-69
2023/04/04 16:22:37;;;;;;;0.98;0.93;;;7.90;89.70;;;;;;4893585;29;20208;-69
2023/04/04 16:25:04;;;;;;;0.77;0.77;;;7.90;90.30;;;;;;4895974;29;20207;-71
2023/04/04 16:27:31;;;;;;;0.35;0.35;;;7.80;89.60;;;;;;4894989;29;20238;-71
2023/04/04 16:29:57;;;;;;;0.52;0.40;;;7.70;90.40;;;;;;4896175;29;20203;-70
2023/04/04 16:32:24;;;;;;;2.08;1.90;;;7.70;90.20;;;;;;4894204;29;20212;-70
2023/04/04 16:34:51;;;;;;;0.55;0.55;;;7.60;90.80;;;;;;4895535;29;20253;-69
2023/04/04 16:37:18;;;;;;;0.45;0.45;;;7.60;91.70;;;;;;4894918;29;20238;-70
2023/04/04 16:39:47;;;;;;;0.68;0.65;;;7.60;91.80;;;;;;4895876;29;20797;-69
2023/04/04 16:42:18;;;;;;;0.43;0.43;;;7.50;91.80;;;;;;4895415;29;20207;-70
2023/04/04 16:44:45;;;;;;;1.67;1.02;;;7.50;92.00;;;;;;4894359;29;20644;-69
2023/04/04 16:47:11;;;;;;;0.35;0.35;;;7.50;91.60;;;;;;4895188;29;21128;-69
2023/04/04 16:49:38;;;;;;;1.45;1.05;;;7.40;91.60;;;;;;4894420;29;20215;-70
2023/04/04 16:52:05;;;;;;;3.15;0.68;;;7.40;91.50;;;;;;4895359;29;20518;-69
2023/04/04 16:54:32;;;;;;;0.65;0.65;;;7.30;91.70;;;;;;4894510;29;20207;-71
2023/04/04 16:57:00;;;;;;;0.82;0.82;;;7.30;91.70;;;;;;4895423;29;20223;-71
2023/04/04 16:59:27;;;;;;;0.40;0.40;;;7.30;92.10;;;;;;4895881;29;20207;-69
2023/04/04 17:01:54;;;;;;;0.30;0.30;;;7.30;92.10;;;;;;4895072;29;20255;-71